sensor_id;sensor_type;location;lat;lon;timestamp;P1;durP1;ratioP1;P2;durP2;ratioP2
81834;SDS011;71272;52.166;4.498;2024-02-23T00:02:21;19.10;;;3.03;;
81834;SDS011;71272;52.166;4.498;2024-02-23T00:04:47;9.70;;;2.42;;
81834;SDS011;71272;52.166;4.498;2024-02-23T00:07:12;11.07;;;2.13;;
81834;SDS011;71272;52.166;4.498;2024-02-23T00:09:37;8.37;;;2.30;;
81834;SDS011;71272;52.166;4.498;2024-02-23T00:12:03;8.27;;;2.47;;
81834;SDS011;71272;52.166;4.498;2024-02-23T00:14:29;13.85;;;2.42;;
81834;SDS011;71272;52.166;4.498;2024-02-23T00:19:22;12.60;;;1.95;;
81834;SDS011;71272;52.166;4.498;2024-02-23T00:21:48;15.13;;;2.13;;
81834;SDS011;71272;52.166;4.498;2024-02-23T00:24:15;8.82;;;2.47;;
81834;SDS011;71272;52.166;4.498;2024-02-23T00:26:41;13.02;;;1.95;;
81834;SDS011;71272;52.166;4.498;2024-02-23T00:29:07;10.23;;;1.70;;
81834;SDS011;71272;52.166;4.498;2024-02-23T00:31:33;13.77;;;2.10;;
81834;SDS011;71272;52.166;4.498;2024-02-23T00:33:58;13.05;;;2.63;;
81834;SDS011;71272;52.166;4.498;2024-02-23T00:36:24;10.60;;;2.10;;
81834;SDS011;71272;52.166;4.498;2024-02-23T00:38:49;17.52;;;3.40;;
81834;SDS011;71272;52.166;4.498;2024-02-23T00:41:15;10.27;;;1.87;;
81834;SDS011;71272;52.166;4.498;2024-02-23T00:43:40;13.47;;;2.10;;
81834;SDS011;71272;52.166;4.498;2024-02-23T00:46:09;8.18;;;1.83;;
81834;SDS011;71272;52.166;4.498;2024-02-23T00:48:34;10.77;;;1.90;;
81834;SDS011;71272;52.166;4.498;2024-02-23T00:51:01;11.50;;;2.47;;
81834;SDS011;71272;52.166;4.498;2024-02-23T00:53:27;8.15;;;2.05;;
81834;SDS011;71272;52.166;4.498;2024-02-23T00:55:53;11.52;;;2.08;;
81834;SDS011;71272;52.166;4.498;2024-02-23T00:58:18;12.10;;;2.00;;
81834;SDS011;71272;52.166;4.498;2024-02-23T01:00:43;8.95;;;1.77;;
81834;SDS011;71272;52.166;4.498;2024-02-23T01:03:09;8.77;;;1.77;;
81834;SDS011;71272;52.166;4.498;2024-02-23T01:05:34;16.70;;;1.67;;
81834;SDS011;71272;52.166;4.498;2024-02-23T01:07:59;20.43;;;4.43;;
81834;SDS011;71272;52.166;4.498;2024-02-23T01:10:25;9.77;;;1.80;;
81834;SDS011;71272;52.166;4.498;2024-02-23T01:12:50;10.10;;;1.90;;
81834;SDS011;71272;52.166;4.498;2024-02-23T01:15:15;10.65;;;2.15;;
81834;SDS011;71272;52.166;4.498;2024-02-23T01:17:41;9.75;;;1.40;;
81834;SDS011;71272;52.166;4.498;2024-02-23T01:20:06;10.77;;;3.53;;
81834;SDS011;71272;52.166;4.498;2024-02-23T01:22:32;7.95;;;1.63;;
81834;SDS011;71272;52.166;4.498;2024-02-23T01:24:57;5.50;;;1.37;;
81834;SDS011;71272;52.166;4.498;2024-02-23T01:27:22;6.90;;;1.43;;
81834;SDS011;71272;52.166;4.498;2024-02-23T01:29:48;17.60;;;2.07;;
81834;SDS011;71272;52.166;4.498;2024-02-23T01:32:13;6.15;;;1.42;;
81834;SDS011;71272;52.166;4.498;2024-02-23T01:34:38;11.93;;;1.90;;
81834;SDS011;71272;52.166;4.498;2024-02-23T01:37:04;11.40;;;1.40;;
81834;SDS011;71272;52.166;4.498;2024-02-23T01:39:29;7.37;;;1.60;;
81834;SDS011;71272;52.166;4.498;2024-02-23T01:41:54;7.00;;;1.70;;
81834;SDS011;71272;52.166;4.498;2024-02-23T01:44:20;5.82;;;1.80;;
81834;SDS011;71272;52.166;4.498;2024-02-23T01:46:46;4.65;;;1.23;;
81834;SDS011;71272;52.166;4.498;2024-02-23T01:49:12;12.30;;;1.60;;
81834;SDS011;71272;52.166;4.498;2024-02-23T01:51:37;17.92;;;2.13;;
81834;SDS011;71272;52.166;4.498;2024-02-23T01:54:03;10.27;;;1.70;;
81834;SDS011;71272;52.166;4.498;2024-02-23T01:56:29;7.15;;;3.20;;
81834;SDS011;71272;52.166;4.498;2024-02-23T01:58:55;4.72;;;1.75;;
81834;SDS011;71272;52.166;4.498;2024-02-23T02:01:20;8.63;;;1.85;;
81834;SDS011;71272;52.166;4.498;2024-02-23T02:03:46;4.80;;;2.17;;
81834;SDS011;71272;52.166;4.498;2024-02-23T02:06:11;8.53;;;1.70;;
81834;SDS011;71272;52.166;4.498;2024-02-23T02:08:37;8.00;;;1.20;;
81834;SDS011;71272;52.166;4.498;2024-02-23T02:11:03;13.48;;;2.33;;
81834;SDS011;71272;52.166;4.498;2024-02-23T02:13:28;7.70;;;1.80;;
81834;SDS011;71272;52.166;4.498;2024-02-23T02:15:55;9.52;;;1.90;;
81834;SDS011;71272;52.166;4.498;2024-02-23T02:18:20;9.68;;;1.67;;
81834;SDS011;71272;52.166;4.498;2024-02-23T02:20:53;9.27;;;2.13;;
81834;SDS011;71272;52.166;4.498;2024-02-23T02:23:22;6.80;;;1.52;;
81834;SDS011;71272;52.166;4.498;2024-02-23T02:25:54;6.68;;;1.42;;
81834;SDS011;71272;52.166;4.498;2024-02-23T02:28:23;11.27;;;2.30;;
81834;SDS011;71272;52.166;4.498;2024-02-23T02:30:50;8.35;;;2.13;;
81834;SDS011;71272;52.166;4.498;2024-02-23T02:33:16;10.20;;;1.98;;
81834;SDS011;71272;52.166;4.498;2024-02-23T02:35:41;13.77;;;2.10;;
81834;SDS011;71272;52.166;4.498;2024-02-23T02:38:06;9.57;;;1.70;;
81834;SDS011;71272;52.166;4.498;2024-02-23T02:40:32;10.02;;;2.03;;
81834;SDS011;71272;52.166;4.498;2024-02-23T02:42:58;2.90;;;1.20;;
81834;SDS011;71272;52.166;4.498;2024-02-23T02:45:23;7.13;;;1.60;;
81834;SDS011;71272;52.166;4.498;2024-02-23T02:47:49;4.88;;;1.20;;
81834;SDS011;71272;52.166;4.498;2024-02-23T02:50:14;6.63;;;1.30;;
81834;SDS011;71272;52.166;4.498;2024-02-23T02:52:40;10.27;;;1.70;;
81834;SDS011;71272;52.166;4.498;2024-02-23T02:55:05;8.27;;;1.43;;
81834;SDS011;71272;52.166;4.498;2024-02-23T02:57:30;7.03;;;1.23;;
81834;SDS011;71272;52.166;4.498;2024-02-23T02:59:56;11.37;;;1.83;;
81834;SDS011;71272;52.166;4.498;2024-02-23T03:02:21;8.03;;;1.30;;
81834;SDS011;71272;52.166;4.498;2024-02-23T03:04:47;6.03;;;1.10;;
81834;SDS011;71272;52.166;4.498;2024-02-23T03:07:13;9.00;;;1.40;;
81834;SDS011;71272;52.166;4.498;2024-02-23T03:09:38;8.00;;;1.67;;
81834;SDS011;71272;52.166;4.498;2024-02-23T03:12:03;7.20;;;1.90;;
81834;SDS011;71272;52.166;4.498;2024-02-23T03:14:29;10.05;;;1.90;;
81834;SDS011;71272;52.166;4.498;2024-02-23T03:16:54;14.60;;;1.40;;
81834;SDS011;71272;52.166;4.498;2024-02-23T03:19:20;7.67;;;1.40;;
81834;SDS011;71272;52.166;4.498;2024-02-23T03:21:47;4.30;;;1.40;;
81834;SDS011;71272;52.166;4.498;2024-02-23T03:24:13;6.13;;;1.25;;
81834;SDS011;71272;52.166;4.498;2024-02-23T03:26:38;11.37;;;1.90;;
81834;SDS011;71272;52.166;4.498;2024-02-23T03:29:03;8.60;;;1.50;;
81834;SDS011;71272;52.166;4.498;2024-02-23T03:31:28;6.20;;;1.40;;
81834;SDS011;71272;52.166;4.498;2024-02-23T03:33:54;5.80;;;1.20;;
81834;SDS011;71272;52.166;4.498;2024-02-23T03:36:19;6.50;;;1.33;;
81834;SDS011;71272;52.166;4.498;2024-02-23T03:38:44;5.43;;;1.63;;
81834;SDS011;71272;52.166;4.498;2024-02-23T03:41:10;8.93;;;1.63;;
81834;SDS011;71272;52.166;4.498;2024-02-23T03:43:35;7.07;;;1.60;;
81834;SDS011;71272;52.166;4.498;2024-02-23T03:46:00;5.53;;;1.20;;
81834;SDS011;71272;52.166;4.498;2024-02-23T03:48:25;9.73;;;1.63;;
81834;SDS011;71272;52.166;4.498;2024-02-23T03:50:51;10.77;;;1.60;;
81834;SDS011;71272;52.166;4.498;2024-02-23T03:53:16;6.63;;;1.27;;
81834;SDS011;71272;52.166;4.498;2024-02-23T03:55:41;7.00;;;1.40;;
81834;SDS011;71272;52.166;4.498;2024-02-23T03:58:07;16.10;;;3.13;;
81834;SDS011;71272;52.166;4.498;2024-02-23T04:00:32;8.60;;;1.80;;
81834;SDS011;71272;52.166;4.498;2024-02-23T04:02:57;3.23;;;1.20;;
81834;SDS011;71272;52.166;4.498;2024-02-23T04:05:23;11.90;;;2.20;;
81834;SDS011;71272;52.166;4.498;2024-02-23T04:07:48;12.17;;;1.33;;
81834;SDS011;71272;52.166;4.498;2024-02-23T04:10:13;5.03;;;1.20;;
81834;SDS011;71272;52.166;4.498;2024-02-23T04:12:45;14.43;;;1.70;;
81834;SDS011;71272;52.166;4.498;2024-02-23T04:15:12;5.78;;;1.58;;
81834;SDS011;71272;52.166;4.498;2024-02-23T04:17:37;14.10;;;1.77;;
81834;SDS011;71272;52.166;4.498;2024-02-23T04:20:05;8.68;;;1.65;;
81834;SDS011;71272;52.166;4.498;2024-02-23T04:22:31;9.30;;;1.52;;
81834;SDS011;71272;52.166;4.498;2024-02-23T04:24:57;9.10;;;1.60;;
81834;SDS011;71272;52.166;4.498;2024-02-23T04:27:22;7.20;;;1.50;;
81834;SDS011;71272;52.166;4.498;2024-02-23T04:29:47;9.07;;;1.50;;
81834;SDS011;71272;52.166;4.498;2024-02-23T04:32:13;7.72;;;1.58;;
81834;SDS011;71272;52.166;4.498;2024-02-23T04:34:38;17.73;;;2.17;;
81834;SDS011;71272;52.166;4.498;2024-02-23T04:37:05;10.25;;;1.98;;
81834;SDS011;71272;52.166;4.498;2024-02-23T04:39:30;6.03;;;2.15;;
81834;SDS011;71272;52.166;4.498;2024-02-23T04:41:56;5.93;;;1.40;;
81834;SDS011;71272;52.166;4.498;2024-02-23T04:44:21;13.80;;;2.43;;
81834;SDS011;71272;52.166;4.498;2024-02-23T04:46:46;6.70;;;1.80;;
81834;SDS011;71272;52.166;4.498;2024-02-23T04:49:12;11.10;;;2.13;;
81834;SDS011;71272;52.166;4.498;2024-02-23T04:51:37;10.80;;;2.30;;
81834;SDS011;71272;52.166;4.498;2024-02-23T04:54:02;9.43;;;1.70;;
81834;SDS011;71272;52.166;4.498;2024-02-23T04:56:28;9.98;;;1.55;;
81834;SDS011;71272;52.166;4.498;2024-02-23T04:58:53;9.97;;;1.87;;
81834;SDS011;71272;52.166;4.498;2024-02-23T05:01:18;5.37;;;1.33;;
81834;SDS011;71272;52.166;4.498;2024-02-23T05:03:44;5.78;;;1.58;;
81834;SDS011;71272;52.166;4.498;2024-02-23T05:06:09;3.80;;;0.80;;
81834;SDS011;71272;52.166;4.498;2024-02-23T05:08:35;3.60;;;1.20;;
81834;SDS011;71272;52.166;4.498;2024-02-23T05:11:00;11.40;;;1.03;;
81834;SDS011;71272;52.166;4.498;2024-02-23T05:13:26;2.10;;;1.08;;
81834;SDS011;71272;52.166;4.498;2024-02-23T05:15:51;6.70;;;1.13;;
81834;SDS011;71272;52.166;4.498;2024-02-23T05:18:16;5.10;;;1.07;;
81834;SDS011;71272;52.166;4.498;2024-02-23T05:20:42;2.30;;;0.90;;
81834;SDS011;71272;52.166;4.498;2024-02-23T05:23:07;0.65;;;0.57;;
81834;SDS011;71272;52.166;4.498;2024-02-23T05:25:33;3.40;;;0.90;;
81834;SDS011;71272;52.166;4.498;2024-02-23T05:27:58;3.10;;;0.70;;
81834;SDS011;71272;52.166;4.498;2024-02-23T05:30:24;5.15;;;0.98;;
81834;SDS011;71272;52.166;4.498;2024-02-23T05:32:50;7.38;;;1.00;;
81834;SDS011;71272;52.166;4.498;2024-02-23T05:35:15;2.25;;;0.60;;
81834;SDS011;71272;52.166;4.498;2024-02-23T05:37:41;2.20;;;0.85;;
81834;SDS011;71272;52.166;4.498;2024-02-23T05:40:06;7.93;;;1.52;;
81834;SDS011;71272;52.166;4.498;2024-02-23T05:42:35;11.27;;;1.67;;
81834;SDS011;71272;52.166;4.498;2024-02-23T05:45:01;2.95;;;1.30;;
81834;SDS011;71272;52.166;4.498;2024-02-23T05:47:29;7.25;;;1.95;;
81834;SDS011;71272;52.166;4.498;2024-02-23T05:49:55;7.63;;;2.10;;
81834;SDS011;71272;52.166;4.498;2024-02-23T05:52:20;8.57;;;1.80;;
81834;SDS011;71272;52.166;4.498;2024-02-23T05:54:45;5.67;;;1.90;;
81834;SDS011;71272;52.166;4.498;2024-02-23T05:57:11;6.43;;;1.93;;
81834;SDS011;71272;52.166;4.498;2024-02-23T05:59:36;4.93;;;1.90;;
81834;SDS011;71272;52.166;4.498;2024-02-23T06:02:01;5.13;;;2.23;;
81834;SDS011;71272;52.166;4.498;2024-02-23T06:04:26;8.00;;;2.20;;
81834;SDS011;71272;52.166;4.498;2024-02-23T06:06:52;8.00;;;3.20;;
81834;SDS011;71272;52.166;4.498;2024-02-23T06:09:18;6.03;;;2.63;;
81834;SDS011;71272;52.166;4.498;2024-02-23T06:11:44;6.03;;;2.17;;
81834;SDS011;71272;52.166;4.498;2024-02-23T06:14:09;8.30;;;2.40;;
81834;SDS011;71272;52.166;4.498;2024-02-23T06:16:35;5.87;;;2.13;;
81834;SDS011;71272;52.166;4.498;2024-02-23T06:19:00;6.23;;;2.33;;
81834;SDS011;71272;52.166;4.498;2024-02-23T06:21:26;6.45;;;3.15;;
81834;SDS011;71272;52.166;4.498;2024-02-23T06:23:52;6.63;;;3.50;;
81834;SDS011;71272;52.166;4.498;2024-02-23T06:26:18;9.60;;;3.58;;
81834;SDS011;71272;52.166;4.498;2024-02-23T06:28:43;10.93;;;2.93;;
81834;SDS011;71272;52.166;4.498;2024-02-23T06:31:09;10.30;;;3.30;;
81834;SDS011;71272;52.166;4.498;2024-02-23T06:33:35;8.98;;;3.40;;
81834;SDS011;71272;52.166;4.498;2024-02-23T06:36:00;13.48;;;5.15;;
81834;SDS011;71272;52.166;4.498;2024-02-23T06:38:29;10.02;;;3.17;;
81834;SDS011;71272;52.166;4.498;2024-02-23T06:40:54;9.65;;;4.10;;
81834;SDS011;71272;52.166;4.498;2024-02-23T06:43:21;9.25;;;3.65;;
81834;SDS011;71272;52.166;4.498;2024-02-23T06:45:46;9.23;;;3.90;;
81834;SDS011;71272;52.166;4.498;2024-02-23T06:48:11;6.70;;;3.50;;
81834;SDS011;71272;52.166;4.498;2024-02-23T06:50:37;6.70;;;3.30;;
81834;SDS011;71272;52.166;4.498;2024-02-23T06:53:02;7.23;;;2.67;;
81834;SDS011;71272;52.166;4.498;2024-02-23T06:55:28;8.50;;;3.07;;
81834;SDS011;71272;52.166;4.498;2024-02-23T06:57:53;7.18;;;2.83;;
81834;SDS011;71272;52.166;4.498;2024-02-23T07:00:19;9.10;;;2.92;;
81834;SDS011;71272;52.166;4.498;2024-02-23T07:02:46;9.43;;;2.50;;
81834;SDS011;71272;52.166;4.498;2024-02-23T07:05:11;6.82;;;2.63;;
81834;SDS011;71272;52.166;4.498;2024-02-23T07:07:37;5.90;;;2.77;;
81834;SDS011;71272;52.166;4.498;2024-02-23T07:10:03;6.00;;;2.90;;
81834;SDS011;71272;52.166;4.498;2024-02-23T07:12:28;10.20;;;3.03;;
81834;SDS011;71272;52.166;4.498;2024-02-23T07:14:54;9.23;;;3.40;;
81834;SDS011;71272;52.166;4.498;2024-02-23T07:17:20;14.85;;;4.25;;
81834;SDS011;71272;52.166;4.498;2024-02-23T07:19:45;7.10;;;3.60;;
81834;SDS011;71272;52.166;4.498;2024-02-23T07:22:11;15.13;;;3.42;;
81834;SDS011;71272;52.166;4.498;2024-02-23T07:24:40;7.97;;;3.43;;
81834;SDS011;71272;52.166;4.498;2024-02-23T07:27:06;8.80;;;3.08;;
81834;SDS011;71272;52.166;4.498;2024-02-23T07:29:31;10.30;;;3.50;;
81834;SDS011;71272;52.166;4.498;2024-02-23T07:31:56;10.37;;;3.87;;
81834;SDS011;71272;52.166;4.498;2024-02-23T07:34:21;10.77;;;3.77;;
81834;SDS011;71272;52.166;4.498;2024-02-23T07:36:47;12.55;;;3.60;;
81834;SDS011;71272;52.166;4.498;2024-02-23T07:39:13;6.13;;;3.70;;
81834;SDS011;71272;52.166;4.498;2024-02-23T07:41:38;12.13;;;3.60;;
81834;SDS011;71272;52.166;4.498;2024-02-23T07:44:03;8.97;;;3.70;;
81834;SDS011;71272;52.166;4.498;2024-02-23T07:46:29;8.53;;;3.10;;
81834;SDS011;71272;52.166;4.498;2024-02-23T07:48:54;5.97;;;3.13;;
81834;SDS011;71272;52.166;4.498;2024-02-23T07:51:19;10.67;;;3.07;;
81834;SDS011;71272;52.166;4.498;2024-02-23T07:53:44;8.03;;;2.77;;
81834;SDS011;71272;52.166;4.498;2024-02-23T07:56:10;9.70;;;3.03;;
81834;SDS011;71272;52.166;4.498;2024-02-23T07:58:35;16.80;;;3.40;;
81834;SDS011;71272;52.166;4.498;2024-02-23T08:01:00;11.13;;;3.73;;
81834;SDS011;71272;52.166;4.498;2024-02-23T08:03:26;9.73;;;3.10;;
81834;SDS011;71272;52.166;4.498;2024-02-23T08:05:51;7.60;;;2.57;;
81834;SDS011;71272;52.166;4.498;2024-02-23T08:08:16;9.13;;;2.90;;
81834;SDS011;71272;52.166;4.498;2024-02-23T08:10:42;5.27;;;2.47;;
81834;SDS011;71272;52.166;4.498;2024-02-23T08:13:07;6.30;;;3.13;;
81834;SDS011;71272;52.166;4.498;2024-02-23T08:18:01;10.43;;;2.88;;
81834;SDS011;71272;52.166;4.498;2024-02-23T08:20:26;7.87;;;3.13;;
81834;SDS011;71272;52.166;4.498;2024-02-23T08:22:51;7.27;;;2.97;;
81834;SDS011;71272;52.166;4.498;2024-02-23T08:25:17;11.90;;;4.00;;
81834;SDS011;71272;52.166;4.498;2024-02-23T08:27:43;9.23;;;3.20;;
81834;SDS011;71272;52.166;4.498;2024-02-23T08:30:08;6.83;;;2.67;;
81834;SDS011;71272;52.166;4.498;2024-02-23T08:35:01;11.98;;;3.42;;
81834;SDS011;71272;52.166;4.498;2024-02-23T08:37:26;9.93;;;3.30;;
81834;SDS011;71272;52.166;4.498;2024-02-23T08:39:52;9.93;;;2.97;;
81834;SDS011;71272;52.166;4.498;2024-02-23T08:42:18;11.60;;;3.35;;
81834;SDS011;71272;52.166;4.498;2024-02-23T08:44:43;9.27;;;3.20;;
81834;SDS011;71272;52.166;4.498;2024-02-23T08:47:08;12.33;;;3.40;;
81834;SDS011;71272;52.166;4.498;2024-02-23T08:49:33;15.03;;;3.30;;
81834;SDS011;71272;52.166;4.498;2024-02-23T08:51:59;9.43;;;4.57;;
81834;SDS011;71272;52.166;4.498;2024-02-23T08:54:24;7.27;;;3.40;;
81834;SDS011;71272;52.166;4.498;2024-02-23T08:56:49;10.57;;;4.03;;
81834;SDS011;71272;52.166;4.498;2024-02-23T08:59:15;10.50;;;3.17;;
81834;SDS011;71272;52.166;4.498;2024-02-23T09:01:40;7.30;;;3.20;;
81834;SDS011;71272;52.166;4.498;2024-02-23T09:04:05;7.73;;;3.40;;
81834;SDS011;71272;52.166;4.498;2024-02-23T09:06:31;15.13;;;4.10;;
81834;SDS011;71272;52.166;4.498;2024-02-23T09:08:57;8.57;;;3.50;;
81834;SDS011;71272;52.166;4.498;2024-02-23T09:11:23;8.48;;;3.50;;
81834;SDS011;71272;52.166;4.498;2024-02-23T09:13:48;8.83;;;3.20;;
81834;SDS011;71272;52.166;4.498;2024-02-23T09:16:13;9.10;;;3.33;;
81834;SDS011;71272;52.166;4.498;2024-02-23T09:18:39;9.15;;;3.50;;
81834;SDS011;71272;52.166;4.498;2024-02-23T09:21:05;12.07;;;4.05;;
81834;SDS011;71272;52.166;4.498;2024-02-23T09:23:30;15.27;;;4.07;;
81834;SDS011;71272;52.166;4.498;2024-02-23T09:25:55;11.30;;;3.80;;
81834;SDS011;71272;52.166;4.498;2024-02-23T09:28:21;9.00;;;3.07;;
81834;SDS011;71272;52.166;4.498;2024-02-23T09:30:46;8.67;;;3.73;;
81834;SDS011;71272;52.166;4.498;2024-02-23T09:33:11;14.57;;;3.70;;
81834;SDS011;71272;52.166;4.498;2024-02-23T09:35:37;8.47;;;2.77;;
81834;SDS011;71272;52.166;4.498;2024-02-23T09:38:02;5.90;;;2.37;;
81834;SDS011;71272;52.166;4.498;2024-02-23T09:40:27;7.93;;;3.08;;
81834;SDS011;71272;52.166;4.498;2024-02-23T09:42:55;6.33;;;2.37;;
81834;SDS011;71272;52.166;4.498;2024-02-23T09:45:24;9.00;;;2.95;;
81834;SDS011;71272;52.166;4.498;2024-02-23T09:47:52;8.85;;;2.38;;
81834;SDS011;71272;52.166;4.498;2024-02-23T09:50:18;6.13;;;2.72;;
81834;SDS011;71272;52.166;4.498;2024-02-23T09:52:47;7.93;;;2.55;;
81834;SDS011;71272;52.166;4.498;2024-02-23T09:55:15;9.70;;;2.75;;
81834;SDS011;71272;52.166;4.498;2024-02-23T09:57:41;6.32;;;2.30;;
81834;SDS011;71272;52.166;4.498;2024-02-23T10:00:07;7.32;;;2.30;;
81834;SDS011;71272;52.166;4.498;2024-02-23T10:02:34;5.75;;;1.80;;
81834;SDS011;71272;52.166;4.498;2024-02-23T10:05:01;7.93;;;2.25;;
81834;SDS011;71272;52.166;4.498;2024-02-23T10:07:27;5.88;;;1.75;;
81834;SDS011;71272;52.166;4.498;2024-02-23T10:09:53;4.95;;;2.00;;
81834;SDS011;71272;52.166;4.498;2024-02-23T10:14:45;5.53;;;2.43;;
81834;SDS011;71272;52.166;4.498;2024-02-23T10:17:10;4.63;;;1.90;;
81834;SDS011;71272;52.166;4.498;2024-02-23T10:19:36;7.13;;;2.07;;
81834;SDS011;71272;52.166;4.498;2024-02-23T10:22:01;5.73;;;1.80;;
81834;SDS011;71272;52.166;4.498;2024-02-23T10:24:26;4.10;;;1.87;;
81834;SDS011;71272;52.166;4.498;2024-02-23T10:26:52;4.33;;;1.83;;
81834;SDS011;71272;52.166;4.498;2024-02-23T10:29:17;6.90;;;1.80;;
81834;SDS011;71272;52.166;4.498;2024-02-23T10:31:43;10.10;;;2.22;;
81834;SDS011;71272;52.166;4.498;2024-02-23T10:34:14;6.60;;;1.88;;
81834;SDS011;71272;52.166;4.498;2024-02-23T10:36:43;7.28;;;2.00;;
81834;SDS011;71272;52.166;4.498;2024-02-23T10:41:36;8.55;;;2.38;;
81834;SDS011;71272;52.166;4.498;2024-02-23T10:44:04;6.97;;;2.15;;
81834;SDS011;71272;52.166;4.498;2024-02-23T10:46:31;11.00;;;2.75;;
81834;SDS011;71272;52.166;4.498;2024-02-23T10:48:56;4.72;;;1.98;;
81834;SDS011;71272;52.166;4.498;2024-02-23T10:51:24;7.63;;;2.15;;
81834;SDS011;71272;52.166;4.498;2024-02-23T10:53:50;7.88;;;2.40;;
81834;SDS011;71272;52.166;4.498;2024-02-23T10:58:43;4.95;;;2.28;;
81834;SDS011;71272;52.166;4.498;2024-02-23T11:01:08;8.17;;;2.10;;
81834;SDS011;71272;52.166;4.498;2024-02-23T11:03:35;10.73;;;2.85;;
81834;SDS011;71272;52.166;4.498;2024-02-23T11:08:28;4.55;;;1.90;;
81834;SDS011;71272;52.166;4.498;2024-02-23T11:10:54;9.80;;;2.45;;
81834;SDS011;71272;52.166;4.498;2024-02-23T11:13:29;4.20;;;2.03;;
81834;SDS011;71272;52.166;4.498;2024-02-23T11:16:01;5.25;;;1.90;;
81834;SDS011;71272;52.166;4.498;2024-02-23T11:18:27;5.43;;;2.28;;
81834;SDS011;71272;52.166;4.498;2024-02-23T11:20:54;12.65;;;2.50;;
81834;SDS011;71272;52.166;4.498;2024-02-23T11:23:23;7.03;;;2.00;;
81834;SDS011;71272;52.166;4.498;2024-02-23T11:26:04;3.63;;;1.70;;
81834;SDS011;71272;52.166;4.498;2024-02-23T11:28:31;5.22;;;2.20;;
81834;SDS011;71272;52.166;4.498;2024-02-23T11:30:57;11.93;;;2.25;;
81834;SDS011;71272;52.166;4.498;2024-02-23T11:33:27;10.75;;;1.98;;
81834;SDS011;71272;52.166;4.498;2024-02-23T11:36:09;6.20;;;2.42;;
81834;SDS011;71272;52.166;4.498;2024-02-23T11:38:34;5.63;;;1.63;;
81834;SDS011;71272;52.166;4.498;2024-02-23T11:41:00;8.17;;;2.07;;
81834;SDS011;71272;52.166;4.498;2024-02-23T11:43:27;6.13;;;1.80;;
81834;SDS011;71272;52.166;4.498;2024-02-23T11:45:52;7.80;;;2.28;;
81834;SDS011;71272;52.166;4.498;2024-02-23T11:48:18;4.40;;;1.70;;
81834;SDS011;71272;52.166;4.498;2024-02-23T11:50:44;8.02;;;2.13;;
81834;SDS011;71272;52.166;4.498;2024-02-23T11:53:09;11.20;;;1.63;;
81834;SDS011;71272;52.166;4.498;2024-02-23T11:55:35;7.10;;;1.80;;
81834;SDS011;71272;52.166;4.498;2024-02-23T11:58:00;9.73;;;1.90;;
81834;SDS011;71272;52.166;4.498;2024-02-23T12:00:26;5.13;;;1.67;;
81834;SDS011;71272;52.166;4.498;2024-02-23T12:02:51;7.00;;;1.60;;
81834;SDS011;71272;52.166;4.498;2024-02-23T12:05:16;5.70;;;1.80;;
81834;SDS011;71272;52.166;4.498;2024-02-23T12:07:44;3.85;;;1.52;;
81834;SDS011;71272;52.166;4.498;2024-02-23T12:10:10;4.68;;;1.63;;
81834;SDS011;71272;52.166;4.498;2024-02-23T12:12:36;7.75;;;2.30;;
81834;SDS011;71272;52.166;4.498;2024-02-23T12:15:02;4.40;;;1.42;;
81834;SDS011;71272;52.166;4.498;2024-02-23T12:17:27;4.57;;;1.83;;
81834;SDS011;71272;52.166;4.498;2024-02-23T12:19:59;5.20;;;1.85;;
81834;SDS011;71272;52.166;4.498;2024-02-23T12:22:25;5.35;;;1.65;;
81834;SDS011;71272;52.166;4.498;2024-02-23T12:24:50;5.00;;;1.67;;
81834;SDS011;71272;52.166;4.498;2024-02-23T12:27:19;6.67;;;1.87;;
81834;SDS011;71272;52.166;4.498;2024-02-23T12:29:52;3.53;;;1.45;;
81834;SDS011;71272;52.166;4.498;2024-02-23T12:32:19;5.47;;;1.50;;
81834;SDS011;71272;52.166;4.498;2024-02-23T12:37:14;5.78;;;1.60;;
81834;SDS011;71272;52.166;4.498;2024-02-23T12:39:47;6.20;;;1.40;;
81834;SDS011;71272;52.166;4.498;2024-02-23T12:42:13;9.63;;;1.77;;
81834;SDS011;71272;52.166;4.498;2024-02-23T12:44:38;7.63;;;2.00;;
81834;SDS011;71272;52.166;4.498;2024-02-23T12:47:04;5.43;;;1.40;;
81834;SDS011;71272;52.166;4.498;2024-02-23T12:49:29;4.47;;;1.60;;
81834;SDS011;71272;52.166;4.498;2024-02-23T12:51:55;8.40;;;2.10;;
81834;SDS011;71272;52.166;4.498;2024-02-23T12:54:20;7.35;;;1.50;;
81834;SDS011;71272;52.166;4.498;2024-02-23T12:56:46;5.40;;;1.10;;
81834;SDS011;71272;52.166;4.498;2024-02-23T12:59:11;4.00;;;1.20;;
81834;SDS011;71272;52.166;4.498;2024-02-23T13:01:36;7.57;;;1.70;;
81834;SDS011;71272;52.166;4.498;2024-02-23T13:04:03;4.53;;;1.48;;
81834;SDS011;71272;52.166;4.498;2024-02-23T13:06:35;6.75;;;1.38;;
81834;SDS011;71272;52.166;4.498;2024-02-23T13:09:02;5.88;;;1.48;;
81834;SDS011;71272;52.166;4.498;2024-02-23T13:11:28;6.35;;;1.40;;
81834;SDS011;71272;52.166;4.498;2024-02-23T13:13:54;6.03;;;2.07;;
81834;SDS011;71272;52.166;4.498;2024-02-23T13:16:19;4.37;;;1.03;;
81834;SDS011;71272;52.166;4.498;2024-02-23T13:18:44;4.53;;;1.13;;
81834;SDS011;71272;52.166;4.498;2024-02-23T13:21:11;7.88;;;1.40;;
81834;SDS011;71272;52.166;4.498;2024-02-23T13:23:37;3.33;;;0.95;;
81834;SDS011;71272;52.166;4.498;2024-02-23T13:26:02;5.50;;;1.92;;
81834;SDS011;71272;52.166;4.498;2024-02-23T13:28:28;2.78;;;1.10;;
81834;SDS011;71272;52.166;4.498;2024-02-23T13:30:53;4.60;;;1.10;;
81834;SDS011;71272;52.166;4.498;2024-02-23T13:33:18;3.43;;;1.30;;
81834;SDS011;71272;52.166;4.498;2024-02-23T13:35:45;7.38;;;1.20;;
81834;SDS011;71272;52.166;4.498;2024-02-23T13:38:10;8.93;;;1.20;;
81834;SDS011;71272;52.166;4.498;2024-02-23T13:40:36;5.53;;;1.00;;
81834;SDS011;71272;52.166;4.498;2024-02-23T13:43:01;5.97;;;1.30;;
81834;SDS011;71272;52.166;4.498;2024-02-23T13:45:26;4.00;;;2.03;;
81834;SDS011;71272;52.166;4.498;2024-02-23T13:47:59;4.10;;;0.97;;
81834;SDS011;71272;52.166;4.498;2024-02-23T13:52:51;3.67;;;1.10;;
81834;SDS011;71272;52.166;4.498;2024-02-23T13:55:17;9.60;;;1.27;;
81834;SDS011;71272;52.166;4.498;2024-02-23T13:57:45;6.35;;;1.20;;
81834;SDS011;71272;52.166;4.498;2024-02-23T14:00:11;2.67;;;1.00;;
81834;SDS011;71272;52.166;4.498;2024-02-23T14:02:37;4.97;;;1.40;;
81834;SDS011;71272;52.166;4.498;2024-02-23T14:05:05;3.22;;;0.90;;
81834;SDS011;71272;52.166;4.498;2024-02-23T14:07:32;2.47;;;0.95;;
81834;SDS011;71272;52.166;4.498;2024-02-23T14:10:00;5.78;;;1.40;;
81834;SDS011;71272;52.166;4.498;2024-02-23T14:12:27;2.70;;;0.70;;
81834;SDS011;71272;52.166;4.498;2024-02-23T14:14:53;3.42;;;0.80;;
81834;SDS011;71272;52.166;4.498;2024-02-23T14:17:18;2.00;;;0.60;;
81834;SDS011;71272;52.166;4.498;2024-02-23T14:19:43;1.60;;;0.90;;
81834;SDS011;71272;52.166;4.498;2024-02-23T14:22:09;3.43;;;1.07;;
81834;SDS011;71272;52.166;4.498;2024-02-23T14:24:34;1.98;;;0.80;;
81834;SDS011;71272;52.166;4.498;2024-02-23T14:27:00;2.97;;;1.08;;
81834;SDS011;71272;52.166;4.498;2024-02-23T14:29:25;4.07;;;0.90;;
81834;SDS011;71272;52.166;4.498;2024-02-23T14:31:51;1.92;;;0.93;;
81834;SDS011;71272;52.166;4.498;2024-02-23T14:34:16;2.80;;;1.10;;
81834;SDS011;71272;52.166;4.498;2024-02-23T14:36:41;6.03;;;1.27;;
81834;SDS011;71272;52.166;4.498;2024-02-23T14:41:34;3.42;;;1.30;;
81834;SDS011;71272;52.166;4.498;2024-02-23T14:44:00;2.23;;;1.00;;
81834;SDS011;71272;52.166;4.498;2024-02-23T14:46:25;3.47;;;1.10;;
81834;SDS011;71272;52.166;4.498;2024-02-23T14:48:50;4.80;;;1.27;;
81834;SDS011;71272;52.166;4.498;2024-02-23T14:51:16;3.03;;;0.90;;
81834;SDS011;71272;52.166;4.498;2024-02-23T14:53:41;3.93;;;1.53;;
81834;SDS011;71272;52.166;4.498;2024-02-23T14:56:06;3.60;;;0.87;;
81834;SDS011;71272;52.166;4.498;2024-02-23T14:58:32;1.67;;;1.03;;
81834;SDS011;71272;52.166;4.498;2024-02-23T15:00:57;4.85;;;1.30;;
81834;SDS011;71272;52.166;4.498;2024-02-23T15:03:22;1.80;;;0.97;;